Time;durP1;ratioP1;P1;durP2;ratioP2;P2;SDS_P1;SDS_P2;PMS_P1;PMS_P2;Temp;Humidity;BMP_temperature;BMP_pressure;BME280_temperature;BME280_humidity;BME280_pressure;Samples;Min_cycle;Max_cycle;Signal;HPM_P1;HPM_P2
2021/12/21 00:01:45;;;;;;;6.45;1.25;;;28.00;75.50;;;;;;4961004;28;20093;-75
2021/12/21 00:04:12;;;;;;;6.15;1.52;;;28.10;74.40;;;;;;4963268;28;20018;-78
2021/12/21 00:06:41;;;;;;;7.20;1.40;;;28.10;74.00;;;;;;4961195;28;20053;-76
2021/12/21 00:09:09;;;;;;;5.88;1.20;;;28.20;72.90;;;;;;4962666;28;20019;-75
2021/12/21 00:11:37;;;;;;;4.82;1.30;;;28.30;73.50;;;;;;4961181;28;20542;-77
2021/12/21 00:19:51;;;;;;;7.25;1.73;;;28.60;70.90;;;;;;4974268;28;20097;-82
2021/12/21 00:25:06;;;;;;;4.70;1.02;;;28.80;72.70;;;;;;4957273;28;20038;-85
2021/12/21 00:27:35;;;;;;;7.32;1.50;;;29.00;72.00;;;;;;5005318;28;20670;-80
2021/12/21 00:30:03;;;;;;;4.63;0.98;;;29.10;72.40;;;;;;4971758;28;20491;-82
2021/12/21 00:32:30;;;;;;;7.05;1.60;;;29.20;71.90;;;;;;4959974;28;20023;-79
2021/12/21 00:34:57;;;;;;;4.95;1.10;;;29.20;72.80;;;;;;4952860;28;20027;-79
2021/12/21 00:37:27;;;;;;;3.22;1.00;;;29.30;72.10;;;;;;4952544;28;20042;-78
2021/12/21 00:39:54;;;;;;;6.70;1.00;;;29.50;70.90;;;;;;4952380;28;20038;-79
2021/12/21 00:42:22;;;;;;;11.85;2.20;;;29.60;71.50;;;;;;4955297;28;20489;-79
2021/12/21 00:44:49;;;;;;;4.78;0.88;;;29.70;69.10;;;;;;4958535;28;20031;-78
2021/12/21 00:47:17;;;;;;;5.93;1.92;;;29.80;68.80;;;;;;4963264;28;20532;-79
2021/12/21 00:49:46;;;;;;;3.70;0.73;;;29.90;68.40;;;;;;4960711;28;20071;-80
2021/12/21 00:52:15;;;;;;;9.15;2.25;;;30.00;68.40;;;;;;4961281;28;20188;-83
2021/12/21 00:54:43;;;;;;;7.07;1.25;;;30.00;68.20;;;;;;4964061;28;20487;-78
2021/12/21 00:57:10;;;;;;;5.15;1.10;;;30.10;68.00;;;;;;4962495;28;20042;-78
2021/12/21 00:59:37;;;;;;;9.38;2.38;;;30.10;68.70;;;;;;4964610;28;20035;-75
2021/12/21 01:02:05;;;;;;;7.80;1.58;;;30.30;67.70;;;;;;4963134;28;20036;-77
2021/12/21 01:04:38;;;;;;;5.60;1.17;;;30.40;67.60;;;;;;4964046;28;20105;-76
2021/12/21 01:12:36;;;;;;;3.97;0.88;;;30.80;65.80;;;;;;4956916;28;20031;-79
2021/12/21 01:17:57;;;;;;;6.82;1.65;;;31.00;65.10;;;;;;4976919;28;20632;-85
2021/12/21 01:20:48;;;;;;;6.47;0.80;;;31.10;64.90;;;;;;4976782;28;20402;-83
2021/12/21 01:26:14;;;;;;;5.65;0.90;;;31.40;62.90;;;;;;4976031;28;20026;-85
2021/12/21 01:28:53;;;;;;;7.30;0.90;;;31.50;62.50;;;;;;4977503;28;20097;-88
2021/12/21 01:34:09;;;;;;;4.90;1.55;;;31.80;62.90;;;;;;4976330;28;20026;-79
2021/12/21 01:36:48;;;;;;;8.05;1.52;;;31.80;63.30;;;;;;4974396;28;20121;-79
2021/12/21 01:49:42;;;;;;;6.88;1.17;;;32.40;62.60;;;;;;4976769;28;20062;-83
2021/12/21 01:52:29;;;;;;;5.90;1.48;;;32.60;63.00;;;;;;4978254;28;20026;-79
2021/12/21 01:54:57;;;;;;;7.40;1.67;;;32.80;61.10;;;;;;4979026;28;20114;-82
2021/12/21 01:57:25;;;;;;;11.85;1.20;;;32.90;61.30;;;;;;4979402;28;20106;-80
2021/12/21 02:00:03;;;;;;;7.72;1.48;;;33.00;60.40;;;;;;5007486;28;20037;-83
2021/12/21 02:02:31;;;;;;;6.13;1.00;;;33.10;59.80;;;;;;4975363;28;20034;-80
2021/12/21 02:04:58;;;;;;;8.75;2.47;;;33.10;59.70;;;;;;4974532;28;20023;-81
2021/12/21 02:07:25;;;;;;;4.88;1.08;;;33.30;59.70;;;;;;4974909;28;20049;-82
2021/12/21 02:09:53;;;;;;;4.25;1.73;;;33.40;59.50;;;;;;4976004;28;20380;-82
2021/12/21 02:12:21;;;;;;;9.32;1.25;;;33.40;59.10;;;;;;4975277;28;20023;-83
2021/12/21 02:14:59;;;;;;;8.93;1.00;;;33.40;59.80;;;;;;4975380;28;20038;-81
2021/12/21 02:23:06;;;;;;;8.85;1.70;;;33.30;60.90;;;;;;4975282;28;20046;-83
2021/12/21 02:26:21;;;;;;;7.22;1.10;;;33.40;61.40;;;;;;4975112;28;20023;-77
2021/12/21 02:28:46;;;;;;;6.53;1.45;;;33.50;59.70;;;;;;4973947;28;20035;-80
2021/12/21 02:31:16;;;;;;;6.03;1.35;;;33.60;60.70;;;;;;4975453;28;20081;-80
2021/12/21 02:33:47;;;;;;;6.30;1.27;;;33.70;60.00;;;;;;4973812;28;20033;-81
2021/12/21 02:36:14;;;;;;;9.23;1.63;;;33.80;60.10;;;;;;4975430;28;20026;-77
2021/12/21 02:38:41;;;;;;;5.53;1.55;;;33.80;59.30;;;;;;4975175;28;20027;-81
2021/12/21 02:41:09;;;;;;;7.57;1.80;;;33.80;59.10;;;;;;4975515;28;20511;-79
2021/12/21 02:43:38;;;;;;;5.47;1.25;;;33.80;58.50;;;;;;4974857;28;20019;-80
2021/12/21 02:46:07;;;;;;;4.70;1.10;;;33.70;58.40;;;;;;4974675;28;20033;-80
2021/12/21 02:48:34;;;;;;;8.20;1.70;;;33.60;59.90;;;;;;4974132;28;20048;-75
2021/12/21 02:51:03;;;;;;;6.18;1.27;;;33.70;59.80;;;;;;4972480;28;20459;-77
2021/12/21 02:53:30;;;;;;;5.65;1.30;;;33.90;59.10;;;;;;4974368;28;20061;-81
2021/12/21 02:55:58;;;;;;;6.70;1.00;;;34.10;58.70;;;;;;4974728;28;20103;-86
2021/12/21 02:58:25;;;;;;;4.93;1.10;;;34.20;58.40;;;;;;4974332;28;20030;-81
2021/12/21 03:00:53;;;;;;;8.05;1.60;;;34.30;60.70;;;;;;4974373;28;20035;-77
2021/12/21 03:03:21;;;;;;;6.22;2.55;;;34.30;58.90;;;;;;4974359;28;20061;-81
2021/12/21 03:05:53;;;;;;;8.73;1.80;;;34.50;59.00;;;;;;4973885;28;20081;-82
2021/12/21 03:08:55;;;;;;;16.45;1.50;;;34.80;58.50;;;;;;4973828;28;20027;-80
2021/12/21 03:16:39;;;;;;;9.05;1.45;;;35.70;56.50;;;;;;4967871;28;20085;-83
2021/12/21 03:19:09;;;;;;;6.35;1.50;;;35.80;56.50;;;;;;4977387;28;20029;-87
2021/12/21 03:21:39;;;;;;;6.95;1.55;;;36.00;56.30;;;;;;4977008;28;20368;-86
2021/12/21 03:24:08;;;;;;;9.98;2.25;;;36.30;55.90;;;;;;4975423;28;20079;-82
2021/12/21 03:26:37;;;;;;;7.65;1.35;;;36.60;55.00;;;;;;4975372;28;20031;-83
2021/12/21 03:29:06;;;;;;;7.50;1.63;;;36.80;54.60;;;;;;4972399;28;20023;-77
2021/12/21 03:31:33;;;;;;;7.18;1.23;;;37.20;55.10;;;;;;4977201;28;20522;-80
2021/12/21 03:34:01;;;;;;;7.93;1.92;;;37.40;53.70;;;;;;4975761;28;20027;-80
2021/12/21 03:36:29;;;;;;;4.68;1.20;;;37.60;53.20;;;;;;4976330;28;20023;-85
2021/12/21 03:39:08;;;;;;;8.25;1.35;;;37.70;52.80;;;;;;4980464;28;20035;-86
2021/12/21 03:41:40;;;;;;;5.78;1.10;;;38.00;51.00;;;;;;4980189;28;20030;-85
2021/12/21 03:44:09;;;;;;;4.55;0.88;;;38.40;51.40;;;;;;4976602;28;20018;-85
2021/12/21 03:46:45;;;;;;;6.72;1.20;;;38.30;50.60;;;;;;4977859;28;20035;-85
2021/12/21 03:51:53;;;;;;;6.15;1.38;;;38.50;51.00;;;;;;4980677;28;20507;-83
2021/12/21 03:54:20;;;;;;;7.95;1.40;;;38.50;50.20;;;;;;4977100;28;20034;-82
2021/12/21 03:56:48;;;;;;;8.02;1.20;;;38.40;49.90;;;;;;4978142;28;20082;-78
2021/12/21 03:59:21;;;;;;;4.00;1.30;;;38.30;50.20;;;;;;4981349;28;20114;-77
2021/12/21 04:01:50;;;;;;;4.65;1.05;;;38.70;50.40;;;;;;4977329;28;20038;-85
2021/12/21 04:04:18;;;;;;;7.53;1.08;;;39.10;49.50;;;;;;4975929;28;20086;-84
2021/12/21 04:06:47;;;;;;;8.98;1.27;;;38.90;49.20;;;;;;4985062;28;20027;-84
2021/12/21 04:09:15;;;;;;;5.70;1.17;;;39.00;49.70;;;;;;4977129;28;20105;-83
2021/12/21 04:11:43;;;;;;;7.72;1.50;;;38.70;49.80;;;;;;4981251;28;20148;-81
2021/12/21 04:14:12;;;;;;;6.20;1.00;;;38.90;49.80;;;;;;4978549;28;20050;-84
2021/12/21 04:16:40;;;;;;;6.80;1.67;;;38.80;49.40;;;;;;4970702;28;20031;-75
2021/12/21 04:19:07;;;;;;;5.65;1.40;;;39.00;49.60;;;;;;4967473;28;20567;-81
2021/12/21 04:21:35;;;;;;;7.65;1.15;;;39.20;49.60;;;;;;4968344;28;20046;-76
2021/12/21 04:24:02;;;;;;;8.43;1.88;;;39.20;48.90;;;;;;4968613;28;20125;-76
2021/12/21 04:26:29;;;;;;;10.52;2.00;;;39.10;49.50;;;;;;4968882;28;20050;-74
2021/12/21 04:28:57;;;;;;;7.57;1.55;;;38.90;50.00;;;;;;4967308;28;20025;-78
2021/12/21 04:31:24;;;;;;;9.85;1.52;;;38.90;49.90;;;;;;4967489;28;20015;-76
2021/12/21 04:33:53;;;;;;;8.98;1.10;;;38.90;50.00;;;;;;4970932;28;20499;-76
2021/12/21 04:36:20;;;;;;;6.43;1.17;;;38.80;50.10;;;;;;4959950;28;20074;-75
2021/12/21 04:38:50;;;;;;;7.63;1.55;;;38.80;50.10;;;;;;4967338;28;20059;-76
2021/12/21 04:41:27;;;;;;;5.88;1.80;;;38.80;50.10;;;;;;4967794;28;20045;-77
2021/12/21 04:43:57;;;;;;;7.82;1.55;;;38.90;50.40;;;;;;4967411;28;20047;-76
2021/12/21 04:46:25;;;;;;;6.70;2.10;;;38.90;50.20;;;;;;4967245;28;20054;-75
2021/12/21 04:48:57;;;;;;;8.40;2.15;;;39.00;50.40;;;;;;4967688;28;20037;-78
2021/12/21 04:51:24;;;;;;;6.88;1.63;;;39.10;50.40;;;;;;4967778;28;20110;-80
2021/12/21 04:53:51;;;;;;;5.40;1.83;;;39.10;51.30;;;;;;4967957;28;20042;-81
2021/12/21 04:56:19;;;;;;;7.97;2.22;;;39.10;50.50;;;;;;4966796;28;20483;-76
2021/12/21 04:58:46;;;;;;;7.07;1.73;;;38.70;51.50;;;;;;4968790;28;20126;-78
2021/12/21 05:01:13;;;;;;;10.80;2.63;;;38.60;51.90;;;;;;4972587;28;20042;-79
2021/12/21 05:03:41;;;;;;;9.25;2.50;;;38.70;52.10;;;;;;4972739;28;20027;-82
2021/12/21 05:06:08;;;;;;;10.18;2.25;;;38.90;52.20;;;;;;4970990;28;20028;-83
2021/12/21 05:08:39;;;;;;;12.63;2.33;;;39.00;52.60;;;;;;4971966;28;20030;-78
2021/12/21 05:11:07;;;;;;;8.85;1.80;;;39.20;51.90;;;;;;4972794;28;20030;-81
2021/12/21 05:13:38;;;;;;;10.63;2.17;;;38.70;51.60;;;;;;4972865;28;20019;-78
2021/12/21 05:16:06;;;;;;;8.88;1.65;;;38.80;52.50;;;;;;4972874;28;20019;-78
2021/12/21 05:18:35;;;;;;;9.90;1.95;;;38.90;52.20;;;;;;4972177;28;20027;-78
2021/12/21 05:21:03;;;;;;;8.25;1.40;;;38.80;51.80;;;;;;4972052;28;20039;-77
2021/12/21 05:23:31;;;;;;;10.65;3.38;;;38.80;51.80;;;;;;4972363;28;20050;-79
2021/12/21 05:25:58;;;;;;;8.32;1.45;;;38.60;52.60;;;;;;4972394;28;20368;-82
2021/12/21 05:28:26;;;;;;;9.20;2.53;;;38.30;53.30;;;;;;4972217;28;20031;-85
2021/12/21 05:30:53;;;;;;;5.07;1.55;;;38.20;53.00;;;;;;4972350;28;20058;-79
2021/12/21 05:33:20;;;;;;;7.95;1.75;;;38.00;53.20;;;;;;4972642;28;20029;-80
2021/12/21 05:35:48;;;;;;;9.23;1.55;;;37.60;53.30;;;;;;4971566;28;20030;-79
2021/12/21 05:38:23;;;;;;;7.10;1.55;;;37.50;53.70;;;;;;4971726;28;20026;-79
2021/12/21 05:40:50;;;;;;;5.75;1.60;;;37.30;53.80;;;;;;4971011;28;20035;-81
2021/12/21 05:43:18;;;;;;;6.30;1.70;;;37.30;53.10;;;;;;4972276;28;20089;-76
2021/12/21 05:45:45;;;;;;;6.28;1.75;;;37.10;53.50;;;;;;4972581;28;20027;-80
2021/12/21 05:48:13;;;;;;;10.60;1.85;;;36.90;53.40;;;;;;4971637;28;20127;-78
2021/12/21 05:50:40;;;;;;;8.75;1.45;;;36.20;53.90;;;;;;4970320;28;20027;-79
2021/12/21 05:53:07;;;;;;;9.52;1.90;;;36.00;54.80;;;;;;4973815;28;20484;-81
2021/12/21 05:55:35;;;;;;;8.85;2.22;;;35.70;55.50;;;;;;4978047;28;20027;-77
2021/12/21 05:58:03;;;;;;;7.22;1.60;;;35.50;55.50;;;;;;4977638;28;20540;-79
2021/12/21 06:00:33;;;;;;;6.82;1.75;;;35.40;55.80;;;;;;4976592;28;20122;-77
2021/12/21 06:03:00;;;;;;;9.10;2.22;;;34.90;56.40;;;;;;4976886;28;20019;-79
2021/12/21 06:05:28;;;;;;;11.15;1.50;;;34.70;56.60;;;;;;4975846;28;20050;-81
2021/12/21 06:07:56;;;;;;;8.45;1.85;;;34.60;57.10;;;;;;4975232;28;20019;-77
2021/12/21 06:10:31;;;;;;;8.35;1.75;;;34.30;56.60;;;;;;4975768;28;20557;-79
2021/12/21 06:26:44;;;;;;;7.93;1.92;;;34.00;59.30;;;;;;4975526;28;20094;-81
2021/12/21 06:29:11;;;;;;;7.63;1.55;;;33.80;59.60;;;;;;4978021;28;20436;-81
2021/12/21 06:31:41;;;;;;;10.98;2.40;;;33.80;59.90;;;;;;4978419;28;20034;-81
2021/12/21 06:34:12;;;;;;;12.02;3.03;;;33.60;60.10;;;;;;4979088;28;20570;-82
2021/12/21 06:36:40;;;;;;;7.93;1.65;;;33.50;60.50;;;;;;4976940;28;20033;-76
2021/12/21 06:39:09;;;;;;;6.65;1.35;;;33.50;60.50;;;;;;4978893;28;20475;-81
2021/12/21 06:41:37;;;;;;;5.82;1.63;;;33.30;60.00;;;;;;4974749;28;20043;-83
2021/12/21 06:44:10;;;;;;;6.82;1.60;;;33.40;60.50;;;;;;4959563;28;20058;-82
2021/12/21 06:52:13;;;;;;;5.78;1.50;;;33.20;58.20;;;;;;4966230;28;20147;-78
2021/12/21 06:54:40;;;;;;;9.25;1.70;;;32.80;58.60;;;;;;4974378;28;20026;-81
2021/12/21 06:57:08;;;;;;;9.82;1.70;;;32.40;60.30;;;;;;4976716;28;20027;-82
2021/12/21 06:59:38;;;;;;;7.60;2.08;;;32.30;61.20;;;;;;4976552;28;20035;-80
2021/12/21 07:02:06;;;;;;;5.47;1.17;;;32.10;61.30;;;;;;4977791;28;20031;-79
2021/12/21 07:04:33;;;;;;;5.43;1.27;;;32.00;60.40;;;;;;4976896;28;20163;-81
2021/12/21 07:07:01;;;;;;;10.52;1.33;;;31.90;60.40;;;;;;4976391;28;20031;-80
2021/12/21 07:09:39;;;;;;;6.97;1.55;;;32.00;61.20;;;;;;4977105;28;20023;-84
2021/12/21 07:18:06;;;;;;;10.18;2.47;;;31.90;62.30;;;;;;4976283;28;20542;-80
2021/12/21 07:20:21;;;;;;;5.65;1.17;;;32.00;62.50;;;;;;4975188;28;20377;-82
2021/12/21 07:22:49;;;;;;;6.75;2.10;;;32.00;62.20;;;;;;4976565;28;20039;-80
2021/12/21 07:25:17;;;;;;;10.20;1.65;;;31.80;62.00;;;;;;4981150;28;20464;-78
2021/12/21 07:27:44;;;;;;;5.55;1.10;;;31.70;63.00;;;;;;4975121;28;20023;-77
2021/12/21 07:30:12;;;;;;;6.22;1.35;;;31.60;63.90;;;;;;4976962;28;20369;-83
2021/12/21 07:32:45;;;;;;;8.30;1.75;;;31.50;63.70;;;;;;4973370;28;20027;-78
2021/12/21 07:35:12;;;;;;;7.93;1.67;;;31.20;61.50;;;;;;4973421;28;20039;-79
2021/12/21 07:37:40;;;;;;;6.90;2.15;;;31.00;64.90;;;;;;4974902;28;20050;-82
2021/12/21 07:40:08;;;;;;;8.95;1.65;;;30.80;65.80;;;;;;4975488;28;20428;-85
2021/12/21 07:42:36;;;;;;;10.15;1.95;;;30.70;66.60;;;;;;4973965;28;20049;-84
2021/12/21 07:45:07;;;;;;;7.65;1.60;;;30.50;65.00;;;;;;4966286;28;20384;-86
2021/12/21 07:47:34;;;;;;;10.00;1.95;;;30.30;66.90;;;;;;4972654;28;20386;-86
2021/12/21 07:50:03;;;;;;;9.18;1.88;;;30.20;68.10;;;;;;4974878;28;20039;-85
2021/12/21 07:52:30;;;;;;;5.95;1.30;;;30.00;68.30;;;;;;4975027;28;20109;-82
2021/12/21 07:54:58;;;;;;;8.00;1.95;;;30.00;67.00;;;;;;4973632;28;20023;-81
2021/12/21 07:57:25;;;;;;;6.72;1.23;;;30.00;67.40;;;;;;4974413;28;20485;-86
2021/12/21 07:59:52;;;;;;;8.45;1.63;;;29.80;67.60;;;;;;4973221;28;20462;-78
2021/12/21 08:02:20;;;;;;;7.72;2.58;;;29.80;68.40;;;;;;4972635;28;20142;-81
2021/12/21 08:04:48;;;;;;;5.05;1.30;;;29.80;68.50;;;;;;4973161;28;20033;-79
2021/12/21 08:07:19;;;;;;;8.88;1.92;;;29.70;68.90;;;;;;4972510;28;20054;-80
2021/12/21 08:09:48;;;;;;;;;;;29.50;69.00;;;;;;4973280;28;20042;-82
2021/12/21 08:12:17;;;;;;;7.10;1.73;;;29.20;70.40;;;;;;4973252;28;20391;-81
2021/12/21 08:14:48;;;;;;;5.95;2.03;;;29.00;69.80;;;;;;4971894;28;20049;-79
2021/12/21 08:17:16;;;;;;;4.78;1.40;;;28.90;73.20;;;;;;4972165;28;20062;-82
2021/12/21 08:19:45;;;;;;;6.80;1.35;;;28.90;74.50;;;;;;4973335;28;20035;-85
2021/12/21 08:22:12;;;;;;;6.70;1.30;;;28.80;75.40;;;;;;4973008;28;20396;-84
2021/12/21 08:24:41;;;;;;;7.50;2.33;;;28.70;75.20;;;;;;4972610;28;20051;-83
2021/12/21 08:27:08;;;;;;;9.15;2.22;;;28.70;76.00;;;;;;4972973;28;20031;-78
2021/12/21 08:29:37;;;;;;;12.82;2.65;;;28.60;78.40;;;;;;4972340;28;20074;-85
2021/12/21 08:32:05;;;;;;;8.98;1.95;;;28.50;79.70;;;;;;4969206;28;20034;-81
2021/12/21 08:34:34;;;;;;;6.60;2.00;;;28.40;81.10;;;;;;4963091;28;20035;-81
2021/12/21 08:37:01;;;;;;;8.13;2.67;;;28.30;82.10;;;;;;4964460;28;20047;-80
2021/12/21 08:39:37;;;;;;;11.70;1.80;;;28.30;82.50;;;;;;4972337;28;20023;-83
2021/12/21 08:42:05;;;;;;;10.27;2.60;;;28.20;83.10;;;;;;4975337;28;20023;-77
2021/12/21 08:44:32;;;;;;;10.43;2.47;;;28.10;84.90;;;;;;4969027;28;20035;-81
2021/12/21 08:47:00;;;;;;;10.32;2.78;;;27.90;86.20;;;;;;4964702;28;20015;-84
2021/12/21 08:49:28;;;;;;;9.55;2.15;;;27.70;87.00;;;;;;4966066;28;20019;-77
2021/12/21 08:52:02;;;;;;;7.20;2.03;;;27.70;87.90;;;;;;5007933;28;20088;-80
2021/12/21 08:54:29;;;;;;;11.75;2.42;;;27.70;88.30;;;;;;4966573;28;20036;-82
2021/12/21 08:56:56;;;;;;;12.40;2.30;;;27.70;89.30;;;;;;4966706;28;20038;-80
2021/12/21 08:59:24;;;;;;;9.95;2.08;;;27.50;90.00;;;;;;4968672;28;20042;-83
2021/12/21 09:01:53;;;;;;;12.90;2.25;;;27.40;90.50;;;;;;4957080;28;20240;-85
2021/12/21 09:04:22;;;;;;;12.98;2.33;;;27.40;90.90;;;;;;4964974;28;20029;-80
2021/12/21 09:06:50;;;;;;;15.40;3.42;;;27.30;91.20;;;;;;4953866;28;20358;-79
2021/12/21 09:09:17;;;;;;;12.43;2.90;;;27.20;91.70;;;;;;4960349;28;20045;-79
2021/12/21 09:11:45;;;;;;;11.30;2.80;;;27.00;92.50;;;;;;4966137;28;20039;-79
2021/12/21 09:14:13;;;;;;;12.63;2.50;;;26.90;93.00;;;;;;4963959;28;20034;-81
2021/12/21 09:16:40;;;;;;;8.93;2.17;;;26.90;93.50;;;;;;4969716;28;20349;-78
2021/12/21 09:19:08;;;;;;;12.05;3.05;;;26.90;94.10;;;;;;4961603;28;20035;-81
2021/12/21 09:21:36;;;;;;;8.93;2.08;;;26.90;94.40;;;;;;4963004;28;20484;-81
2021/12/21 09:24:03;;;;;;;13.70;2.85;;;26.80;94.50;;;;;;4961079;28;20051;-79
2021/12/21 09:26:30;;;;;;;7.68;2.55;;;26.80;95.20;;;;;;4963534;28;20419;-77
2021/12/21 09:28:58;;;;;;;11.15;2.80;;;26.80;95.50;;;;;;4964745;28;20100;-82
2021/12/21 09:31:25;;;;;;;9.05;2.67;;;26.90;95.80;;;;;;4970972;28;20546;-82
2021/12/21 09:33:53;;;;;;;10.80;3.00;;;27.00;96.00;;;;;;4972717;28;20034;-80
2021/12/21 09:36:20;;;;;;;13.60;3.42;;;27.20;95.80;;;;;;4971030;28;20054;-74
2021/12/21 09:38:47;;;;;;;10.75;2.13;;;27.30;95.90;;;;;;4970617;28;20035;-78
2021/12/21 09:41:15;;;;;;;11.70;3.08;;;27.40;95.50;;;;;;4971029;28;20023;-77
2021/12/21 09:43:42;;;;;;;12.05;2.75;;;27.40;95.50;;;;;;4970582;28;20030;-78
2021/12/21 09:46:11;;;;;;;8.55;2.55;;;27.50;95.40;;;;;;4969497;28;20395;-79
2021/12/21 09:48:38;;;;;;;9.68;2.00;;;27.40;95.30;;;;;;4970615;28;20038;-74
2021/12/21 09:51:06;;;;;;;11.02;3.00;;;27.40;95.30;;;;;;4970297;28;20039;-74
2021/12/21 09:53:35;;;;;;;8.50;1.75;;;27.40;95.30;;;;;;4970282;28;20027;-78
2021/12/21 09:56:06;;;;;;;12.77;2.75;;;27.30;95.60;;;;;;4967147;28;20026;-76
2021/12/21 09:58:34;;;;;;;11.80;2.38;;;27.30;95.40;;;;;;4969234;28;20030;-76
2021/12/21 10:01:02;;;;;;;11.20;2.63;;;27.20;95.90;;;;;;4974739;28;20037;-72
2021/12/21 10:03:29;;;;;;;6.40;1.90;;;27.20;96.00;;;;;;4975180;28;20054;-73
2021/12/21 10:06:07;;;;;;;6.97;1.98;;;27.30;96.00;;;;;;4974557;28;20064;-74
2021/12/21 10:08:35;;;;;;;8.25;2.35;;;27.30;96.00;;;;;;4970624;28;20018;-78
2021/12/21 10:11:06;;;;;;;9.32;1.92;;;27.30;96.20;;;;;;4970234;28;20034;-74
2021/12/21 10:13:36;;;;;;;10.13;1.98;;;27.20;96.50;;;;;;4969997;28;20026;-76
2021/12/21 10:16:06;;;;;;;9.18;1.90;;;27.30;96.30;;;;;;4969652;28;20066;-73
2021/12/21 10:18:39;;;;;;;9.52;2.22;;;27.30;96.60;;;;;;4969903;28;20031;-75
2021/12/21 10:21:09;;;;;;;9.18;2.50;;;27.30;96.70;;;;;;4970223;28;20027;-75
2021/12/21 10:23:39;;;;;;;8.05;1.75;;;27.40;96.60;;;;;;4970059;28;20090;-74
2021/12/21 10:26:13;;;;;;;12.18;2.65;;;27.40;96.50;;;;;;4969833;28;20035;-73
2021/12/21 10:28:47;;;;;;;9.45;2.08;;;27.40;96.60;;;;;;4969890;28;20035;-73
2021/12/21 10:31:15;;;;;;;12.40;1.90;;;27.50;96.60;;;;;;4970408;28;20089;-70
2021/12/21 10:33:47;;;;;;;10.27;2.70;;;27.50;96.60;;;;;;4969579;28;20023;-77
2021/12/21 10:36:16;;;;;;;12.98;2.58;;;27.50;96.80;;;;;;4969458;28;20034;-75
2021/12/21 10:38:53;;;;;;;10.35;3.00;;;27.50;97.00;;;;;;4968406;28;20023;-74
2021/12/21 10:41:22;;;;;;;10.18;2.78;;;27.40;97.40;;;;;;4969637;28;20030;-75
2021/12/21 10:44:02;;;;;;;11.52;2.65;;;27.40;97.50;;;;;;4972348;28;20031;-73
2021/12/21 10:46:31;;;;;;;13.70;2.50;;;27.30;97.80;;;;;;4974611;28;20023;-75
2021/12/21 10:49:11;;;;;;;13.32;3.38;;;27.10;98.10;;;;;;4974437;28;20026;-77
2021/12/21 10:51:55;;;;;;;10.88;3.13;;;27.00;98.50;;;;;;4973768;28;20062;-77
2021/12/21 10:54:41;;;;;;;10.45;2.80;;;26.90;98.80;;;;;;4974161;28;20033;-80
2021/12/21 10:57:17;;;;;;;13.23;3.20;;;26.80;99.20;;;;;;4970886;28;20034;-78
2021/12/21 10:59:51;;;;;;;15.70;2.90;;;26.70;99.50;;;;;;4966350;28;20053;-78
2021/12/21 11:02:27;;;;;;;15.02;2.58;;;26.70;99.90;;;;;;4967654;28;20089;-75
2021/12/21 11:05:01;;;;;;;12.30;2.75;;;26.60;99.90;;;;;;4969434;28;20031;-79
2021/12/21 11:10:12;;;;;;;17.63;2.83;;;26.50;99.90;;;;;;4969831;28;20031;-80
2021/12/21 11:13:04;;;;;;;19.08;2.97;;;26.40;99.90;;;;;;4973204;28;20043;-82
2021/12/21 11:15:35;;;;;;;16.10;2.80;;;26.40;99.90;;;;;;4973844;28;20077;-84
2021/12/21 11:18:13;;;;;;;13.43;2.75;;;26.40;99.90;;;;;;4973630;28;20054;-74
2021/12/21 11:20:46;;;;;;;15.93;3.65;;;26.30;99.90;;;;;;4973330;28;20061;-83
2021/12/21 11:23:19;;;;;;;12.20;2.92;;;26.30;99.90;;;;;;4972968;28;20038;-83
2021/12/21 11:25:49;;;;;;;16.20;3.45;;;26.20;99.90;;;;;;4972740;28;20033;-81
2021/12/21 11:28:21;;;;;;;15.82;2.88;;;26.20;99.90;;;;;;4971634;28;20061;-80
2021/12/21 11:30:49;;;;;;;16.88;3.35;;;26.10;99.90;;;;;;4973929;28;20031;-81
2021/12/21 11:33:19;;;;;;;22.52;3.17;;;26.10;99.90;;;;;;4973783;28;20639;-77
2021/12/21 11:38:35;;;;;;;18.45;3.45;;;26.10;99.90;;;;;;4973055;28;20089;-82
2021/12/21 11:41:05;;;;;;;18.63;3.63;;;26.10;99.90;;;;;;4973635;28;20035;-79
2021/12/21 11:43:47;;;;;;;13.57;3.42;;;26.00;99.90;;;;;;4973198;28;20050;-81
2021/12/21 11:46:24;;;;;;;19.38;3.30;;;26.00;99.90;;;;;;4973139;28;20444;-80
2021/12/21 11:49:19;;;;;;;16.48;3.55;;;26.00;99.90;;;;;;4972157;28;20129;-76
2021/12/21 11:51:47;;;;;;;17.90;3.35;;;26.00;99.90;;;;;;4951401;28;20121;-81
2021/12/21 11:54:20;;;;;;;15.65;2.65;;;26.00;99.90;;;;;;4972968;28;20065;-77
2021/12/21 11:56:47;;;;;;;17.38;3.63;;;26.00;99.90;;;;;;4973280;28;20379;-79
2021/12/21 11:59:22;;;;;;;13.30;3.70;;;26.00;99.90;;;;;;4973349;28;20030;-78
2021/12/21 12:01:50;;;;;;;16.05;2.90;;;26.00;99.90;;;;;;4973439;28;20529;-80
2021/12/21 12:04:17;;;;;;;18.15;3.45;;;26.00;99.90;;;;;;4973264;28;20077;-80
2021/12/21 12:06:50;;;;;;;15.02;3.35;;;25.90;99.90;;;;;;4973058;28;20098;-81
2021/12/21 12:09:33;;;;;;;17.95;3.10;;;25.80;99.90;;;;;;4972847;28;20086;-78
2021/12/21 12:12:15;;;;;;;16.52;3.30;;;25.80;99.90;;;;;;4973014;28;20113;-76
2021/12/21 12:14:47;;;;;;;18.00;3.17;;;25.70;99.90;;;;;;4974195;28;20031;-79
2021/12/21 12:17:26;;;;;;;16.80;3.10;;;25.70;99.90;;;;;;4973523;28;20023;-79
2021/12/21 12:20:05;;;;;;;13.80;3.67;;;25.60;99.90;;;;;;4972760;28;20543;-78
2021/12/21 12:22:37;;;;;;;19.10;3.20;;;25.60;99.90;;;;;;4972767;28;20106;-78
2021/12/21 12:25:08;;;;;;;16.13;3.40;;;25.60;99.90;;;;;;4973155;28;20037;-77
2021/12/21 12:27:45;;;;;;;19.10;3.97;;;25.50;99.90;;;;;;4973076;28;20384;-78
2021/12/21 12:30:16;;;;;;;15.85;3.53;;;25.40;99.90;;;;;;4972733;28;20042;-79
2021/12/21 12:33:09;;;;;;;15.32;3.08;;;25.40;99.90;;;;;;4972626;28;20534;-80
2021/12/21 12:35:37;;;;;;;14.82;3.03;;;25.30;99.90;;;;;;4971804;28;20049;-80
2021/12/21 12:38:17;;;;;;;15.80;3.67;;;25.30;99.90;;;;;;4972878;28;20082;-78
2021/12/21 12:40:58;;;;;;;14.75;3.05;;;25.10;99.90;;;;;;4972538;28;20022;-75
2021/12/21 12:43:32;;;;;;;21.25;3.88;;;25.10;99.90;;;;;;4972903;28;20018;-79
2021/12/21 12:46:04;;;;;;;17.02;3.28;;;25.10;99.90;;;;;;4972505;28;20027;-79
2021/12/21 12:48:38;;;;;;;14.18;3.30;;;25.10;99.90;;;;;;4972306;28;20033;-79
2021/12/21 12:51:07;;;;;;;16.80;3.45;;;25.10;99.90;;;;;;4972822;28;20391;-76
2021/12/21 12:53:44;;;;;;;19.80;3.70;;;25.10;99.90;;;;;;4966981;28;20027;-78
2021/12/21 12:56:14;;;;;;;17.08;3.65;;;25.00;99.90;;;;;;4951322;28;20047;-76
2021/12/21 12:58:55;;;;;;;15.15;3.25;;;25.00;99.90;;;;;;4952545;28;20019;-76
2021/12/21 13:01:25;;;;;;;20.65;3.40;;;25.00;99.90;;;;;;4955661;28;20566;-77
2021/12/21 13:03:58;;;;;;;20.27;4.38;;;24.90;99.90;;;;;;4957453;28;20095;-74
2021/12/21 13:06:37;;;;;;;17.15;3.75;;;24.80;99.90;;;;;;4957312;28;20114;-80
2021/12/21 13:09:10;;;;;;;21.42;4.13;;;24.80;99.90;;;;;;4957433;28;20110;-76
2021/12/21 13:11:40;;;;;;;20.65;4.80;;;24.80;99.90;;;;;;4957290;28;20062;-81
2021/12/21 13:14:11;;;;;;;13.55;2.58;;;24.70;99.90;;;;;;4956903;28;20050;-80
2021/12/21 13:16:39;;;;;;;22.17;4.80;;;24.70;99.90;;;;;;4957246;28;20038;-81
2021/12/21 13:19:13;;;;;;;17.92;3.38;;;24.70;99.90;;;;;;4955889;28;20031;-79
2021/12/21 13:21:51;;;;;;;20.70;3.55;;;24.70;99.90;;;;;;4956396;28;20035;-74
2021/12/21 13:24:21;;;;;;;16.40;4.25;;;24.70;99.90;;;;;;4956774;28;20457;-78
2021/12/21 13:26:55;;;;;;;16.65;4.32;;;24.60;99.90;;;;;;4956753;28;20046;-77
2021/12/21 13:29:26;;;;;;;22.08;4.05;;;24.60;99.90;;;;;;4956722;28;20050;-81
2021/12/21 13:31:56;;;;;;;19.98;3.47;;;24.60;99.90;;;;;;4956590;28;20416;-77
2021/12/21 13:34:25;;;;;;;19.17;4.35;;;24.50;99.90;;;;;;4956820;28;20519;-78
2021/12/21 13:37:00;;;;;;;21.38;3.72;;;24.50;99.90;;;;;;4956818;28;20031;-78
2021/12/21 13:39:33;;;;;;;20.10;3.92;;;24.50;99.90;;;;;;4955213;28;20030;-75
2021/12/21 13:42:01;;;;;;;17.02;3.92;;;24.40;99.90;;;;;;4954756;28;20020;-75
2021/12/21 13:44:32;;;;;;;20.35;4.18;;;24.40;99.90;;;;;;4954728;28;20085;-75
2021/12/21 13:47:06;;;;;;;18.02;3.85;;;24.30;99.90;;;;;;4954865;28;20027;-76
2021/12/21 13:49:33;;;;;;;25.42;5.30;;;24.30;99.90;;;;;;4955026;28;20066;-78
2021/12/21 13:52:01;;;;;;;18.83;4.50;;;24.30;99.90;;;;;;4954553;28;20042;-80
2021/12/21 13:54:29;;;;;;;18.60;4.60;;;24.20;99.90;;;;;;4954512;28;20030;-76
2021/12/21 13:56:56;;;;;;;24.33;5.22;;;24.20;99.90;;;;;;4954497;28;20515;-76
2021/12/21 13:59:23;;;;;;;27.73;5.68;;;24.20;99.90;;;;;;4954064;28;20020;-73
2021/12/21 14:01:56;;;;;;;29.33;4.95;;;24.20;99.90;;;;;;4954998;28;20036;-75
2021/12/21 14:04:27;;;;;;;25.38;4.95;;;24.20;99.90;;;;;;4956007;28;20461;-78
2021/12/21 14:06:55;;;;;;;23.37;4.20;;;24.10;99.90;;;;;;4956114;28;20031;-78
2021/12/21 14:09:23;;;;;;;24.08;5.57;;;24.10;99.90;;;;;;4956034;28;20023;-76
2021/12/21 14:11:56;;;;;;;25.67;4.15;;;24.10;99.90;;;;;;4954844;28;20035;-79
2021/12/21 14:14:24;;;;;;;19.65;4.55;;;24.10;99.90;;;;;;4956102;28;20019;-76
2021/12/21 14:16:54;;;;;;;24.80;4.45;;;24.10;99.90;;;;;;4955981;28;20047;-80